Time;durP1;ratioP1;P1;durP2;ratioP2;P2;SDS_P1;SDS_P2;PMS_P1;PMS_P2;Temp;Humidity;BMP_temperature;BMP_pressure;BME280_temperature;BME280_humidity;BME280_pressure;Samples;Min_cycle;Max_cycle;Signal;HPM_P1;HPM_P2
2022/03/21 00:00:52;;;;;;;250.93;102.53;;;;;;;-1.92;49.38;102928.77;1763925;81;25701;-69
2022/03/21 00:03:24;;;;;;;219.20;97.17;;;;;;;-1.92;49.68;102938.05;1765802;80;25459;-69
2022/03/21 00:05:51;;;;;;;210.10;91.53;;;;;;;-1.95;49.71;102941.02;1750769;82;25768;-69
2022/03/21 00:08:22;;;;;;;197.53;86.80;;;;;;;-2.02;49.76;102932.05;1749291;82;25503;-70
2022/03/21 00:10:47;;;;;;;182.25;83.10;;;;;;;-2.05;50.11;102935.02;1749054;81;28076;-70
2022/03/21 00:13:15;;;;;;;181.20;79.37;;;;;;;-2.11;50.00;102939.14;1749071;81;26010;-71
2022/03/21 00:15:46;;;;;;;181.90;84.05;;;;;;;-2.14;50.12;102937.31;1749392;81;25417;-70
2022/03/21 00:18:14;;;;;;;190.18;84.30;;;;;;;-2.18;50.24;102938.60;1748849;82;25969;-70
2022/03/21 00:20:44;;;;;;;189.37;80.22;;;;;;;-2.21;50.21;102938.44;1749315;82;25554;-70
2022/03/21 00:23:11;;;;;;;175.97;78.33;;;;;;;-2.25;50.46;102941.05;1749190;82;27508;-70
2022/03/21 00:25:39;;;;;;;168.02;71.47;;;;;;;-2.28;50.62;102936.09;1748991;82;25780;-70
2022/03/21 00:28:07;;;;;;;176.15;71.65;;;;;;;-2.29;50.67;102942.37;1749181;82;25671;-71
2022/03/21 00:30:36;;;;;;;143.30;67.47;;;;;;;-2.32;50.89;102936.05;1716009;82;26041;-70
2022/03/21 00:33:04;;;;;;;160.73;70.83;;;;;;;-2.35;50.98;102940.34;1749184;82;25557;-70
2022/03/21 00:35:31;;;;;;;155.75;71.25;;;;;;;-2.39;51.13;102933.70;1749326;82;27138;-70
2022/03/21 00:37:59;;;;;;;163.05;70.25;;;;;;;-2.45;51.23;102937.83;1749093;82;25882;-71
2022/03/21 00:40:25;;;;;;;160.18;69.00;;;;;;;-2.50;51.41;102936.96;1749197;82;25691;-71
2022/03/21 00:42:53;;;;;;;165.18;75.03;;;;;;;-2.53;51.48;102936.45;1744475;81;25578;-70
2022/03/21 00:45:25;;;;;;;174.07;75.78;;;;;;;-2.58;51.65;102934.26;1749336;82;25471;-70
2022/03/21 00:47:53;;;;;;;170.53;74.12;;;;;;;-2.61;51.72;102935.06;1749221;81;27438;-70
2022/03/21 00:50:24;;;;;;;171.93;77.72;;;;;;;-2.65;51.79;102935.88;1749422;81;25756;-70
2022/03/21 00:52:56;;;;;;;190.85;81.42;;;;;;;-2.70;51.74;102929.71;1749809;82;25793;-70
2022/03/21 00:55:31;;;;;;;177.40;82.08;;;;;;;-2.70;51.78;102931.54;1749456;81;25523;-70
2022/03/21 00:57:59;;;;;;;184.75;80.05;;;;;;;-2.72;51.74;102930.36;1749785;81;25408;-70
2022/03/21 01:00:28;;;;;;;179.30;79.27;;;;;;;-2.75;51.79;102926.70;1749615;82;27502;-71
2022/03/21 01:02:56;;;;;;;174.97;81.50;;;;;;;-2.78;51.73;102921.70;1749597;81;26046;-71
2022/03/21 01:05:24;;;;;;;269.98;129.68;;;;;;;-2.77;51.76;102922.05;1749628;82;25415;-71
2022/03/21 01:07:51;;;;;;;230.52;106.83;;;;;;;-2.80;51.90;102918.38;1749583;82;25509;-71
2022/03/21 01:10:21;;;;;;;216.05;105.22;;;;;;;-2.78;51.86;102923.53;1749728;81;25600;-71
2022/03/21 01:12:49;;;;;;;238.87;110.83;;;;;;;-2.80;52.10;102917.06;1749764;81;28067;-71
2022/03/21 01:15:20;;;;;;;203.62;93.03;;;;;;;-2.82;52.18;102921.69;1749528;82;25451;-71
2022/03/21 01:17:48;;;;;;;197.43;89.32;;;;;;;-2.85;52.21;102918.02;1749610;82;25482;-71
2022/03/21 01:20:18;;;;;;;184.63;87.57;;;;;;;-2.87;52.12;102914.20;1749529;81;25592;-71
2022/03/21 01:22:46;;;;;;;217.60;96.55;;;;;;;-2.88;52.42;102914.34;1749623;82;25464;-71
2022/03/21 01:25:14;;;;;;;195.55;87.92;;;;;;;-2.94;52.51;102909.19;1749599;82;27566;-71
2022/03/21 01:27:43;;;;;;;191.25;85.12;;;;;;;-2.97;52.52;102908.17;1749511;82;25826;-71
2022/03/21 01:30:13;;;;;;;179.45;80.03;;;;;;;-2.99;52.47;102903.52;1749596;81;25454;-71
2022/03/21 01:32:43;;;;;;;182.50;81.65;;;;;;;-2.98;52.61;102905.67;1716268;82;26065;-71
2022/03/21 01:35:12;;;;;;;;;;;;;;;-3.02;52.60;102903.32;1752334;82;25545;-71
2022/03/21 01:37:39;;;;;;;;;;;;;;;-3.07;52.72;102904.28;1752197;82;27471;-71
2022/03/21 01:40:27;;;;;;;184.40;77.55;;;;;;;-3.06;52.90;102903.81;1749498;81;25697;-71
2022/03/21 01:42:53;;;;;;;188.35;83.30;;;;;;;-3.08;52.92;102901.78;1669306;86;25637;-70
2022/03/21 01:45:20;;;;;;;171.13;82.12;;;;;;;-3.11;53.01;102907.41;1669256;86;25529;-71
2022/03/21 01:47:47;;;;;;;178.50;81.67;;;;;;;-3.15;53.26;102899.41;1669297;85;25631;-71
2022/03/21 01:50:14;;;;;;;178.27;81.40;;;;;;;-3.13;53.09;102902.73;1669293;86;28044;-71
2022/03/21 01:52:43;;;;;;;176.18;82.82;;;;;;;-3.15;53.29;102898.95;1669208;86;25702;-71
2022/03/21 01:57:57;;;;;;;158.20;70.80;;;;;;;-3.16;53.59;102904.39;1669372;86;25660;-71
2022/03/21 02:00:23;;;;;;;141.03;65.47;;;;;;;-3.17;53.79;102904.04;1669367;86;25465;-71
2022/03/21 02:02:50;;;;;;;136.10;62.23;;;;;;;-3.21;53.81;102900.38;1646543;86;27677;-71
2022/03/21 02:05:17;;;;;;;135.63;62.20;;;;;;;-3.21;54.04;102899.05;1669157;85;25611;-71
2022/03/21 02:07:45;;;;;;;135.70;58.73;;;;;;;-3.22;54.05;102904.48;1669257;86;25513;-71
2022/03/21 02:10:11;;;;;;;136.15;57.88;;;;;;;-3.24;54.02;102901.17;1646442;86;25660;-71
2022/03/21 02:12:38;;;;;;;121.35;54.20;;;;;;;-3.26;54.08;102897.85;1669286;86;25453;-71
2022/03/21 02:15:07;;;;;;;114.12;50.98;;;;;;;-3.30;54.23;102901.77;1669272;86;28097;-71
2022/03/21 02:17:35;;;;;;;125.07;52.60;;;;;;;-3.31;54.45;102900.95;1669309;86;25656;-71
2022/03/21 02:20:03;;;;;;;109.35;48.00;;;;;;;-3.32;54.38;102900.63;1708728;82;25439;-71
2022/03/21 02:22:57;;;;;;;105.22;48.80;;;;;;;-3.33;53.96;102902.92;1749522;81;26079;-72
2022/03/21 02:25:34;;;;;;;112.15;51.60;;;;;;;-3.31;54.53;102902.77;1749594;81;25458;-71
2022/03/21 02:28:15;;;;;;;110.08;49.88;;;;;;;-3.32;54.49;102905.92;1749562;82;27423;-71
2022/03/21 02:30:45;;;;;;;104.87;45.15;;;;;;;-3.34;54.41;102903.07;1749502;81;25627;-71
2022/03/21 02:33:14;;;;;;;94.30;41.90;;;;;;;-3.36;54.44;102907.69;1749564;81;25484;-71
2022/03/21 02:35:44;;;;;;;86.05;40.73;;;;;;;-3.42;54.45;102903.34;1749514;82;25587;-71
2022/03/21 02:38:13;;;;;;;86.90;39.42;;;;;;;-3.45;54.54;102912.91;1720037;82;25714;-71
2022/03/21 02:40:39;;;;;;;86.57;38.03;;;;;;;-3.48;54.61;102907.09;1749685;82;27483;-71
2022/03/21 02:43:06;;;;;;;92.95;42.40;;;;;;;-3.50;54.78;102911.70;1749466;82;25665;-71
2022/03/21 02:45:32;;;;;;;90.07;40.52;;;;;;;-3.51;54.93;102910.85;1749554;82;25382;-71
2022/03/21 02:47:59;;;;;;;111.75;49.00;;;;;;;-3.53;54.90;102908.85;1749502;82;25603;-71
2022/03/21 02:50:40;;;;;;;92.92;41.45;;;;;;;-3.55;54.87;102905.53;1749521;82;25551;-71
2022/03/21 02:53:10;;;;;;;80.70;36.95;;;;;;;-3.56;54.88;102910.47;1749573;82;27519;-70
2022/03/21 02:55:39;;;;;;;83.37;36.33;;;;;;;-3.59;54.98;102909.47;1748775;82;25504;-70
2022/03/21 02:58:06;;;;;;;83.17;37.00;;;;;;;-3.61;55.15;102909.62;1744757;82;25435;-70
2022/03/21 03:00:32;;;;;;;75.25;37.70;;;;;;;-3.64;55.22;102901.98;1749505;82;25557;-70
2022/03/21 03:02:59;;;;;;;91.78;41.45;;;;;;;-3.66;55.21;102901.30;1749630;81;25629;-70
2022/03/21 03:05:25;;;;;;;92.92;41.90;;;;;;;-3.67;55.26;102905.42;1749594;82;27559;-70
2022/03/21 03:07:51;;;;;;;81.95;39.53;;;;;;;-3.70;55.36;102906.53;1749531;81;25448;-71
2022/03/21 03:10:18;;;;;;;87.37;39.38;;;;;;;-3.68;55.42;102914.33;1749609;82;25394;-70
2022/03/21 03:12:44;;;;;;;98.95;42.88;;;;;;;-3.70;55.47;102906.53;1749574;82;26032;-70
2022/03/21 03:15:11;;;;;;;100.58;44.05;;;;;;;-3.71;55.58;102906.21;1749626;82;25424;-70
2022/03/21 03:17:37;;;;;;;89.40;41.42;;;;;;;-3.70;55.60;102903.06;1749613;82;28080;-70
2022/03/21 03:20:06;;;;;;;96.08;43.15;;;;;;;-3.71;55.66;102899.60;1749455;82;25787;-70
2022/03/21 03:22:33;;;;;;;102.25;46.63;;;;;;;-3.72;55.56;102902.39;1749750;82;25606;-70
2022/03/21 03:25:02;;;;;;;103.78;44.42;;;;;;;-3.78;55.60;102892.75;1720066;82;25497;-71
2022/03/21 03:27:30;;;;;;;93.40;41.23;;;;;;;-3.80;55.68;102898.69;1749672;82;25405;-70
2022/03/21 03:29:58;;;;;;;96.32;44.93;;;;;;;-3.79;55.58;102902.98;1749596;82;28132;-70
2022/03/21 03:32:26;;;;;;;96.40;43.23;;;;;;;-3.81;55.89;102903.63;1749417;81;25625;-70
2022/03/21 03:34:52;;;;;;;97.20;44.42;;;;;;;-3.81;56.01;102905.45;1749526;82;25414;-70
2022/03/21 03:37:19;;;;;;;107.78;47.40;;;;;;;-3.85;56.07;102898.27;1749428;82;25597;-70
2022/03/21 03:39:45;;;;;;;106.03;49.10;;;;;;;-3.85;56.09;102896.12;1749492;82;25378;-71
2022/03/21 03:42:12;;;;;;;119.40;51.33;;;;;;;-3.87;56.16;102889.66;1749418;81;27298;-71
2022/03/21 03:44:39;;;;;;;114.40;53.17;;;;;;;-3.87;56.12;102889.66;1749369;82;25721;-70
2022/03/21 03:47:06;;;;;;;121.72;54.00;;;;;;;-3.86;56.16;102889.20;1749500;82;25464;-71
2022/03/21 03:49:33;;;;;;;118.93;53.13;;;;;;;-3.86;56.16;102884.73;1749432;82;25609;-71
2022/03/21 03:51:59;;;;;;;117.97;53.92;;;;;;;-3.85;56.07;102885.05;1749550;81;25381;-70
2022/03/21 03:54:25;;;;;;;118.75;50.95;;;;;;;-3.84;56.00;102884.58;1749499;82;27578;-71
2022/03/21 03:56:52;;;;;;;118.00;52.10;;;;;;;-3.86;56.14;102881.27;1749387;82;25435;-71
2022/03/21 03:59:18;;;;;;;119.47;51.73;;;;;;;-3.86;56.11;102879.44;1749409;82;25533;-71
2022/03/21 04:01:44;;;;;;;110.12;49.60;;;;;;;-3.87;56.14;102875.62;1749465;81;25539;-71
2022/03/21 04:04:11;;;;;;;118.75;50.92;;;;;;;-3.89;56.15;102879.73;1749508;82;25529;-71
2022/03/21 04:06:37;;;;;;;110.92;48.90;;;;;;;-3.91;56.37;102878.23;1749476;82;27445;-71
2022/03/21 04:09:03;;;;;;;111.15;48.90;;;;;;;-3.94;56.36;102876.20;1749403;82;25640;-70
2022/03/21 04:11:30;;;;;;;97.00;44.77;;;;;;;-3.97;56.59;102880.49;1749537;82;25529;-71
2022/03/21 04:13:56;;;;;;;91.60;42.10;;;;;;;-3.98;56.78;102874.84;1749633;82;26038;-71
2022/03/21 04:16:23;;;;;;;88.52;40.85;;;;;;;-4.00;56.93;102876.81;1749681;82;25501;-71
2022/03/21 04:18:49;;;;;;;94.97;41.80;;;;;;;-4.01;57.00;102883.57;1749613;82;27474;-71
2022/03/21 04:21:16;;;;;;;84.87;40.85;;;;;;;-4.03;57.09;102882.89;1749559;82;25657;-71
2022/03/21 04:23:42;;;;;;;93.10;40.43;;;;;;;-4.05;57.22;102884.36;1749662;82;25452;-71
2022/03/21 04:26:12;;;;;;;90.72;41.15;;;;;;;-4.05;57.22;102889.65;1749590;82;25681;-71
2022/03/21 04:28:39;;;;;;;;;;;;;;;-4.05;57.30;102888.80;1752278;82;25402;-71
2022/03/21 04:31:05;;;;;;;89.60;39.83;;;;;;;-4.08;57.30;102894.41;1749678;82;27454;-71
2022/03/21 04:33:31;;;;;;;88.25;41.68;;;;;;;-4.11;57.20;102898.16;1749575;82;25463;-71
2022/03/21 04:35:58;;;;;;;93.10;41.73;;;;;;;-4.09;57.38;102895.38;1749646;82;25668;-71
2022/03/21 04:38:24;;;;;;;93.62;41.55;;;;;;;-4.10;57.36;102895.88;1749579;82;26187;-71
2022/03/21 04:40:51;;;;;;;92.00;41.08;;;;;;;-4.09;57.54;102893.55;1749628;82;25591;-71
2022/03/21 04:43:20;;;;;;;97.02;41.50;;;;;;;-4.09;57.56;102891.41;1754535;81;27713;-71
2022/03/21 04:45:48;;;;;;;100.35;43.25;;;;;;;-4.09;57.56;102898.02;1755164;81;25625;-70
2022/03/21 04:48:15;;;;;;;100.82;43.23;;;;;;;-4.09;57.55;102896.69;1755247;81;25555;-70
2022/03/21 04:50:43;;;;;;;94.67;44.03;;;;;;;-4.09;57.57;102898.02;1755180;81;25571;-71
2022/03/21 04:53:11;;;;;;;99.22;46.20;;;;;;;-4.12;57.59;102903.09;1755266;81;25577;-71
2022/03/21 04:55:40;;;;;;;99.47;46.45;;;;;;;-4.10;57.63;102897.19;1755248;81;27508;-71
2022/03/21 04:58:06;;;;;;;96.55;46.77;;;;;;;-4.08;57.91;102901.02;1755094;81;35186;-71
2022/03/21 05:00:54;;;;;;;106.15;46.35;;;;;;;-4.08;57.98;102898.38;1755216;81;25548;-71
2022/03/21 05:03:22;;;;;;;107.03;47.60;;;;;;;-4.08;58.02;102894.41;1744499;82;25671;-70
2022/03/21 05:05:48;;;;;;;102.92;45.75;;;;;;;-4.04;57.94;102893.11;1742680;82;25608;-71
2022/03/21 05:08:14;;;;;;;100.85;44.98;;;;;;;-4.02;57.88;102899.94;1728554;83;27536;-71
2022/03/21 05:10:42;;;;;;;109.17;46.23;;;;;;;-3.98;58.00;102897.82;1728479;83;25850;-71
2022/03/21 05:13:09;;;;;;;105.35;48.15;;;;;;;-3.95;58.05;102896.18;1744558;82;25453;-71
2022/03/21 05:15:36;;;;;;;97.45;46.08;;;;;;;-3.91;58.13;102902.85;1742643;82;26246;-71
2022/03/21 05:18:04;;;;;;;106.72;46.15;;;;;;;-3.86;58.28;102896.63;1728530;83;25429;-70
2022/03/21 05:20:31;;;;;;;100.60;47.30;;;;;;;-3.81;58.32;102900.98;1744520;82;27467;-71
2022/03/21 05:31:12;;;;;;;101.05;46.53;;;;;;;-3.48;58.30;102912.38;1728577;83;25498;-70
2022/03/21 05:36:28;;;;;;;103.70;45.98;;;;;;;-3.23;58.61;102916.08;1728499;83;25558;-70
2022/03/21 05:38:53;;;;;;;107.35;47.08;;;;;;;-3.08;58.57;102917.20;1727651;82;25413;-68
2022/03/21 05:41:20;;;;;;;104.10;47.17;;;;;;;-2.93;58.65;102917.45;1744566;82;25704;-69
2022/03/21 05:43:46;;;;;;;103.30;47.53;;;;;;;-2.77;58.69;102915.93;1742867;82;25426;-69
2022/03/21 05:46:13;;;;;;;99.07;47.73;;;;;;;-2.59;58.54;102918.01;1728727;83;28392;-70
2022/03/21 05:48:54;;;;;;;98.45;47.00;;;;;;;-2.40;58.66;102917.45;1744500;82;25938;-70
2022/03/21 05:51:27;;;;;;;95.38;47.33;;;;;;;-2.21;58.53;102917.70;1742670;82;25535;-70
2022/03/21 05:53:53;;;;;;;105.37;47.75;;;;;;;-1.97;58.63;102920.96;1713400;83;25664;-70
2022/03/21 05:56:21;;;;;;;102.85;49.13;;;;;;;-1.75;58.34;102912.39;1744561;82;25478;-70
2022/03/21 05:58:48;;;;;;;92.62;46.28;;;;;;;-1.49;58.35;102918.59;1742657;82;27454;-70
2022/03/21 06:01:21;;;;;;;99.77;47.67;;;;;;;-1.25;58.25;102915.12;1728252;83;25540;-70
2022/03/21 06:03:47;;;;;;;97.10;47.83;;;;;;;-0.99;58.00;102915.78;1728146;83;25610;-72
2022/03/21 06:06:15;;;;;;;95.45;46.70;;;;;;;-0.72;57.54;102914.24;1728475;83;25502;-71
2022/03/21 06:08:43;;;;;;;96.10;47.60;;;;;;;-0.46;57.16;102921.50;1728653;83;25407;-71
2022/03/21 06:11:09;;;;;;;94.13;47.70;;;;;;;-0.18;57.04;102921.06;1728762;83;27639;-71
2022/03/21 06:13:39;;;;;;;95.15;47.98;;;;;;;0.11;56.76;102918.27;1728627;83;25636;-71
2022/03/21 06:16:07;;;;;;;94.28;47.05;;;;;;;0.40;56.33;102920.77;1728805;83;25562;-70
2022/03/21 06:18:36;;;;;;;95.12;47.50;;;;;;;0.73;56.30;102921.35;1728736;83;25522;-70
2022/03/21 06:21:08;;;;;;;99.85;48.10;;;;;;;1.07;55.97;102920.92;1703850;83;25671;-70
2022/03/21 06:23:35;;;;;;;94.13;45.98;;;;;;;1.42;55.88;102922.55;1728762;83;27524;-70
2022/03/21 06:26:02;;;;;;;95.85;45.67;;;;;;;1.82;55.47;102922.27;1728658;83;25687;-70
2022/03/21 06:28:30;;;;;;;92.82;45.83;;;;;;;2.20;54.93;102924.80;1728619;83;25503;-71
2022/03/21 06:30:57;;;;;;;95.57;46.55;;;;;;;2.59;54.54;102915.55;1728702;83;25488;-70
2022/03/21 06:33:28;;;;;;;89.83;44.30;;;;;;;3.03;54.03;102918.50;1728803;83;25401;-70
2022/03/21 06:35:57;;;;;;;129.42;58.30;;;;;;;3.45;53.63;102919.91;1728727;83;27527;-70
2022/03/21 06:38:24;;;;;;;99.53;49.93;;;;;;;3.90;52.98;102927.87;1728920;83;25610;-70
2022/03/21 06:40:51;;;;;;;92.70;44.23;;;;;;;4.37;52.28;102929.34;1728724;83;25582;-70
2022/03/21 06:43:24;;;;;;;79.77;41.77;;;;;;;4.82;51.47;102926.14;1725514;81;25501;-70
2022/03/21 06:45:48;;;;;;;88.27;42.20;;;;;;;5.29;50.79;102930.12;1724597;83;32711;-71
2022/03/21 06:48:15;;;;;;;83.97;42.05;;;;;;;5.74;49.89;102928.91;1725962;83;28174;-71
2022/03/21 06:50:51;;;;;;;88.80;41.73;;;;;;;6.21;48.99;102940.29;1725775;83;26082;-71
2022/03/21 06:53:19;;;;;;;81.92;40.33;;;;;;;6.69;48.12;102933.09;1725875;83;25477;-71
2022/03/21 06:55:46;;;;;;;77.25;39.63;;;;;;;7.19;47.14;102933.60;1725813;83;25535;-71
2022/03/21 06:58:13;;;;;;;79.27;42.00;;;;;;;7.63;46.55;102930.36;1700730;83;25435;-71
2022/03/21 07:00:43;;;;;;;72.75;38.15;;;;;;;8.11;45.60;102936.02;1725830;83;27595;-71
2022/03/21 07:03:10;;;;;;;84.10;41.80;;;;;;;8.56;44.85;102927.52;1735271;82;25899;-71
2022/03/21 07:05:38;;;;;;;107.35;54.58;;;;;;;9.02;44.09;102929.98;1740225;82;25551;-71
2022/03/21 07:08:05;;;;;;;66.53;37.15;;;;;;;9.46;42.97;102935.85;1740160;82;25997;-71
2022/03/21 07:10:35;;;;;;;99.03;48.92;;;;;;;9.91;42.42;102929.78;1740247;82;25603;-72
2022/03/21 07:13:05;;;;;;;87.78;43.28;;;;;;;10.38;41.81;102934.73;1711557;82;27423;-71
2022/03/21 07:15:32;;;;;;;98.07;44.98;;;;;;;10.84;40.90;102935.52;1740125;82;25584;-71
2022/03/21 07:18:00;;;;;;;83.55;41.35;;;;;;;11.35;40.67;102929.52;1740228;82;25623;-71
2022/03/21 07:20:27;;;;;;;72.08;38.80;;;;;;;11.71;39.47;102934.59;1740129;82;25655;-71
2022/03/21 07:22:55;;;;;;;74.22;35.65;;;;;;;12.18;38.71;102937.34;1740253;82;25625;-72
2022/03/21 07:25:23;;;;;;;65.10;37.45;;;;;;;12.63;37.20;102938.34;1740265;82;27521;-72
2022/03/21 07:27:51;;;;;;;67.53;37.55;;;;;;;13.04;36.51;102937.81;1740133;82;25414;-72
2022/03/21 07:30:19;;;;;;;73.30;38.80;;;;;;;13.50;35.89;102942.23;1740210;82;25608;-72
2022/03/21 07:32:46;;;;;;;72.78;38.63;;;;;;;13.90;35.27;102933.95;1740182;82;26081;-72
2022/03/21 07:35:13;;;;;;;72.42;38.42;;;;;;;14.35;34.49;102938.41;1710995;82;25476;-72
2022/03/21 07:37:43;;;;;;;66.17;36.42;;;;;;;14.82;33.86;102938.73;1740185;82;27504;-72
2022/03/21 07:40:11;;;;;;;73.28;39.42;;;;;;;15.33;33.04;102946.58;1739929;82;25402;-72
2022/03/21 07:42:44;;;;;;;67.40;33.95;;;;;;;15.74;32.51;102938.25;1740196;82;25488;-72
2022/03/21 07:47:57;;;;;;;56.13;31.02;;;;;;;16.54;30.87;102939.42;1740223;82;25539;-72
2022/03/21 07:50:24;;;;;;;57.62;29.90;;;;;;;16.99;30.11;102936.61;1740216;82;27495;-72
2022/03/21 07:52:53;;;;;;;49.42;30.20;;;;;;;17.41;29.58;102939.73;1740088;82;25630;-72
2022/03/21 07:55:21;;;;;;;48.48;29.57;;;;;;;17.75;28.21;102939.59;1740310;82;25691;-72
2022/03/21 07:57:48;;;;;;;44.48;27.20;;;;;;;18.35;27.96;102939.61;1740151;82;25433;-72
2022/03/21 08:00:16;;;;;;;43.02;25.82;;;;;;;19.12;26.87;102941.06;1740193;82;25631;-72
2022/03/21 08:02:44;;;;;;;44.60;26.15;;;;;;;19.78;26.16;102942.53;1735555;82;27330;-72
2022/03/21 08:05:13;;;;;;;39.40;26.00;;;;;;;20.46;25.51;102940.42;1712126;83;25679;-72
2022/03/21 08:07:41;;;;;;;42.17;24.07;;;;;;;21.04;24.54;102940.90;1725016;83;25470;-72
2022/03/21 08:10:09;;;;;;;40.25;22.48;;;;;;;21.66;24.02;102940.56;1724743;83;25415;-72
2022/03/21 08:12:35;;;;;;;32.33;22.73;;;;;;;22.27;23.38;102930.97;1724805;83;25614;-72
2022/03/21 08:15:03;;;;;;;31.62;22.30;;;;;;;22.68;22.74;102931.01;1724775;83;27438;-72
2022/03/21 08:17:30;;;;;;;33.30;21.10;;;;;;;23.08;22.41;102936.25;1724762;83;25638;-72
2022/03/21 08:19:57;;;;;;;33.55;20.35;;;;;;;23.48;22.02;102930.97;1724765;83;25418;-72
2022/03/21 08:22:24;;;;;;;31.05;20.30;;;;;;;23.79;21.62;102931.17;1724739;82;25528;-72
2022/03/21 08:24:52;;;;;;;32.55;19.57;;;;;;;24.05;20.95;102938.70;1724841;83;25473;-72
2022/03/21 08:27:18;;;;;;;28.75;20.85;;;;;;;24.07;20.55;102936.98;1724755;83;28322;-72
2022/03/21 08:29:45;;;;;;;32.30;20.32;;;;;;;24.05;20.45;102930.98;1724708;83;25537;-72
2022/03/21 08:32:11;;;;;;;29.50;20.72;;;;;;;24.03;20.17;102933.28;1724791;82;25414;-72
2022/03/21 08:34:37;;;;;;;28.67;20.10;;;;;;;23.96;19.72;102931.64;1724754;83;25921;-73
2022/03/21 08:37:04;;;;;;;34.92;21.20;;;;;;;23.94;19.66;102925.62;1724821;83;25437;-73
2022/03/21 08:39:30;;;;;;;34.43;21.20;;;;;;;24.13;19.58;102919.05;1724841;82;27534;-73
2022/03/21 08:41:57;;;;;;;56.90;34.05;;;;;;;24.18;19.21;102909.75;1724881;83;25760;-73
2022/03/21 08:44:23;;;;;;;35.80;20.65;;;;;;;24.30;19.10;102910.38;1725148;83;25333;-73
2022/03/21 08:46:49;;;;;;;43.20;38.45;;;;;;;24.50;18.98;102902.59;1725139;83;25455;-73
2022/03/21 08:49:56;;;;;;;29.45;19.23;;;;;;;24.77;18.29;102910.04;1905571;74;25415;-72
2022/03/21 08:52:22;;;;;;;29.87;20.45;;;;;;;24.94;18.42;102899.33;1859942;76;25570;-73
2022/03/21 08:54:48;;;;;;;23.55;16.50;;;;;;;25.17;18.18;102895.54;1859957;77;27636;-73
2022/03/21 08:57:15;;;;;;;25.90;16.32;;;;;;;25.34;17.80;102897.30;1859817;77;25578;-73
2022/03/21 08:59:42;;;;;;;23.83;15.78;;;;;;;25.47;17.44;102891.97;1859890;77;25354;-73
2022/03/21 09:02:12;;;;;;;21.50;15.32;;;;;;;25.56;17.36;102897.37;1859881;77;25582;-73
2022/03/21 09:04:39;;;;;;;25.68;19.30;;;;;;;25.71;17.31;102888.33;1860015;76;25572;-73
2022/03/21 09:07:10;;;;;;;27.55;16.82;;;;;;;25.85;17.03;102892.09;1859992;76;27711;-73
2022/03/21 09:09:36;;;;;;;24.45;16.10;;;;;;;26.05;16.92;102893.09;1859812;76;25552;-73
2022/03/21 09:12:03;;;;;;;18.30;12.85;;;;;;;26.23;17.04;102893.58;1859925;77;25566;-73
2022/03/21 09:14:30;;;;;;;19.50;14.53;;;;;;;26.15;16.13;102907.02;1859827;76;25537;-73
2022/03/21 09:16:56;;;;;;;18.32;14.53;;;;;;;25.60;16.03;102897.48;1859890;77;25523;-73
2022/03/21 09:19:23;;;;;;;21.00;13.62;;;;;;;25.67;16.26;102896.30;1859841;77;27480;-73
2022/03/21 09:21:52;;;;;;;17.73;13.48;;;;;;;25.78;16.27;102899.38;1859729;77;25577;-73
2022/03/21 09:24:19;;;;;;;18.65;14.07;;;;;;;26.04;16.29;102901.77;1859927;77;25520;-71
2022/03/21 09:26:45;;;;;;;21.75;15.08;;;;;;;26.37;16.08;102896.52;1859887;76;25431;-72
2022/03/21 09:29:12;;;;;;;20.05;14.95;;;;;;;26.47;15.98;102900.16;1859850;77;25411;-73
2022/03/21 09:31:40;;;;;;;20.37;14.50;;;;;;;26.61;15.69;102899.16;1858490;77;27490;-73
2022/03/21 09:34:13;;;;;;;23.47;17.57;;;;;;;26.86;15.97;102900.98;1859360;77;25396;-73
2022/03/21 09:36:40;;;;;;;19.00;15.58;;;;;;;27.17;15.84;102893.19;1859529;76;25416;-74
2022/03/21 09:39:08;;;;;;;18.40;14.13;;;;;;;27.45;15.63;102892.25;1859262;77;25650;-74
2022/03/21 09:41:35;;;;;;;20.62;14.50;;;;;;;27.69;15.01;102885.65;1859950;76;25685;-74
2022/03/21 09:44:10;;;;;;;19.25;13.93;;;;;;;27.60;15.05;102888.64;1859437;77;27498;-72
2022/03/21 09:46:34;;;;;;;21.48;14.35;;;;;;;27.58;14.85;102882.05;1858163;76;25391;-72
2022/03/21 09:49:03;;;;;;;24.30;14.87;;;;;;;27.75;14.92;102880.00;1862502;76;25656;-71
2022/03/21 09:51:31;;;;;;;;;;;;;;;27.96;14.87;102874.11;1868564;76;25569;-72
2022/03/21 09:54:00;;;;;;;18.87;15.23;;;;;;;28.08;14.67;102880.11;1865701;76;25609;-72
2022/03/21 09:56:28;;;;;;;17.27;13.78;;;;;;;28.48;14.61;102869.09;1865829;76;27496;-72
2022/03/21 09:58:59;;;;;;;19.02;13.93;;;;;;;28.96;14.45;102873.70;1866173;76;25337;-72
2022/03/21 10:01:28;;;;;;;19.52;13.85;;;;;;;29.69;14.08;102869.94;1863438;76;25745;-73
2022/03/21 10:03:54;;;;;;;;;;;;;;;30.29;13.63;102862.03;1867869;76;25591;-73
2022/03/21 10:06:30;;;;;;;21.20;15.15;;;;;;;30.85;13.17;102863.75;1865249;76;25375;-73
2022/03/21 10:09:15;;;;;;;20.82;14.87;;;;;;;31.24;13.07;102861.80;1865092;76;27410;-73
2022/03/21 10:11:54;;;;;;;21.57;14.35;;;;;;;31.32;12.85;102857.67;1865242;76;25513;-72
2022/03/21 10:14:34;;;;;;;17.80;14.68;;;;;;;31.59;12.69;102877.19;1863741;76;25403;-72
2022/03/21 10:17:05;;;;;;;19.27;14.40;;;;;;;31.59;12.69;102877.19;1864989;76;25550;-72
2022/03/21 10:19:51;;;;;;;19.27;14.18;;;;;;;31.99;12.56;102850.15;1865140;76;25524;-71
2022/03/21 10:22:21;;;;;;;16.80;13.95;;;;;;;32.08;12.28;102868.56;1864972;76;27550;-71
2022/03/21 10:24:52;;;;;;;22.13;19.23;;;;;;;32.51;12.21;102838.61;1865277;76;25366;-71
2022/03/21 10:27:40;;;;;;;17.80;14.50;;;;;;;32.78;12.15;102840.20;1865180;76;25612;-72
2022/03/21 10:30:10;;;;;;;17.10;12.73;;;;;;;33.06;11.86;102830.33;1865307;76;25836;-72
2022/03/21 10:32:55;;;;;;;15.70;13.10;;;;;;;32.56;11.02;102834.00;1865240;76;25611;-72
2022/03/21 10:35:26;;;;;;;16.48;12.85;;;;;;;32.52;11.39;102828.19;1865235;76;27446;-72
2022/03/21 10:38:01;;;;;;;17.42;11.65;;;;;;;32.95;11.55;102826.77;1864975;76;25364;-72
2022/03/21 10:40:36;;;;;;;17.05;12.70;;;;;;;33.30;11.29;102825.06;1865249;76;25592;-72
2022/03/21 10:43:09;;;;;;;21.62;19.37;;;;;;;33.61;11.04;102824.73;1848686;76;25698;-72
2022/03/21 10:45:51;;;;;;;17.15;13.18;;;;;;;33.67;10.94;102820.30;1865066;76;25603;-72
2022/03/21 10:48:34;;;;;;;16.60;12.73;;;;;;;33.64;10.57;102811.88;1864582;76;27532;-72
2022/03/21 10:51:04;;;;;;;15.68;11.97;;;;;;;32.54;11.00;102823.02;1865190;76;25445;-69
2022/03/21 10:53:40;;;;;;;17.90;13.32;;;;;;;31.84;11.29;102820.51;1864988;76;25632;-71
2022/03/21 10:56:10;;;;;;;18.17;14.38;;;;;;;31.43;11.59;102808.99;1865224;76;25846;-71
2022/03/21 10:58:47;;;;;;;19.80;14.05;;;;;;;31.00;11.83;102810.17;1865319;76;25603;-71
2022/03/21 11:01:27;;;;;;;21.37;14.38;;;;;;;30.79;12.04;102824.80;1864965;76;27502;-69
2022/03/21 11:03:57;;;;;;;17.32;14.05;;;;;;;30.45;12.07;102799.80;1865123;76;25662;-69
2022/03/21 11:06:25;;;;;;;16.70;13.32;;;;;;;30.21;12.13;102795.59;1865167;76;25686;-69
2022/03/21 11:08:54;;;;;;;16.27;12.33;;;;;;;29.72;11.85;102797.47;1865205;76;25540;-69
2022/03/21 11:11:21;;;;;;;19.05;14.30;;;;;;;29.42;12.01;102787.19;1865114;76;25579;-69
2022/03/21 11:13:50;;;;;;;15.93;14.23;;;;;;;29.47;12.46;102787.42;1865237;76;27338;-69
2022/03/21 11:16:18;;;;;;;17.62;12.98;;;;;;;29.47;12.60;102780.45;1865021;76;25777;-69
2022/03/21 11:18:54;;;;;;;19.35;14.33;;;;;;;29.60;12.42;102776.83;1865795;76;25419;-71
2022/03/21 11:21:20;;;;;;;18.85;15.50;;;;;;;29.43;12.47;102781.02;1865162;76;25380;-69
2022/03/21 11:23:48;;;;;;;21.97;14.03;;;;;;;29.44;12.62;102781.23;1830739;76;25380;-71
2022/03/21 11:26:38;;;;;;;18.57;14.58;;;;;;;29.62;12.71;102779.42;1865462;76;27315;-71
2022/03/21 11:29:23;;;;;;;22.37;14.45;;;;;;;29.98;12.53;102774.84;1864877;76;25642;-71
2022/03/21 11:32:19;;;;;;;21.05;14.70;;;;;;;29.97;11.69;102760.09;1862671;76;25587;-71
2022/03/21 11:34:59;;;;;;;20.80;15.32;;;;;;;29.97;11.69;102760.09;1812575;79;25662;-70